Georgetown, MS (39078)

1:15 PM CDT on July 31, 2015 (GMT -0500)
Stronghope | | Change Station
CLOSE
Current Station
Personal Weather Station
Location: Wesson, MS
Elevation: 269 ft
Nearby Weather Stations

Elev 269 ft 31.72 °N, 90.24 °W | Updated 4 seconds ago

Clear
Clear
91.7 °F
Feels Like 95 °F
N
0.0
Wind Variable Wind from NE
Gusts 6.0 mph

Today
High -- | Low -- °F
--% Chance of Precip.
Yesterday
High -- | Low -- °F
Precip. -- in
6:15 AM 7:58 PM
Full, 100% visible
Pressure 30.03 in
Visibility -9999.0 miles
Clouds Clear
Heat Index 95 °F
Dew Point 67 °F
Humidity 45%
Rainfall 0.00 in
Snow Depth Not available.
UV 12 out of 12
Pollen 4.30 out of 12
Air Quality Not available.
Flu Activity Not available.
METAR K1R7 311755Z AUTO 01010KT CLR 31/19 A3003 RMK AO2

More Conditions Fewer Conditions

Pressure 30.03 in
Visibility -9999.0 miles
Clouds Clear
Heat Index 95 °F
Dew Point 67 °F
Humidity 45%
Rainfall 0.00 in
Snow Depth Not available.
UV 12 out of 12
Pollen 4.30 out of 12
Air Quality Not available.
Flu Activity Not available.
METAR K1R7 311755Z AUTO 01010KT CLR 31/19 A3003 RMK AO2

More Conditions Fewer Conditions

10-Day Weather Forecast

×

Almanac

Astronomy

Jul. 31, 2015 Rise Set
Actual Time
Civil Twilight
Nautical Twilight
Astronomical Twilight
Moon
Length of Visible Light
Length of Day
Tomorrow will be .
, % of the Moon is Illuminated

Today's Extremes

State Highs State Lows

Community

WunderPhotos

Upload Photos

1,842,703 photos uploaded!

WunderBlogs® & News

Nearby

Air Quality

  Air Quality AQ Index Pollutant
Not available.

Snow Depth

Station Depth Elevation

Earthquake Activity

City Distance Mag. Time & Date
Minimum magnitude displayed is 2.5.

Coastal Water Temperatures

Place Temperature

Stations

Nearby Weather Stations

Station Location Temp. Windchill Dew Point Humidity Wind Precip. Elev Updated Type